sensor_id;sensor_type;location;lat;lon;timestamp;pressure;altitude;pressure_sealevel;temperature;humidity
58955;BME280;45815;52.334;5.024;2023-02-28T00:00:30;103242.63;;;5.21;100.00
58955;BME280;45815;52.334;5.024;2023-02-28T00:02:57;103246.91;;;5.21;100.00
58955;BME280;45815;52.334;5.024;2023-02-28T00:05:24;103246.03;;;5.20;100.00
58955;BME280;45815;52.334;5.024;2023-02-28T00:07:50;103243.28;;;5.19;100.00
58955;BME280;45815;52.334;5.024;2023-02-28T00:10:18;103238.31;;;5.22;100.00
58955;BME280;45815;52.334;5.024;2023-02-28T00:12:52;103239.25;;;5.22;100.00
58955;BME280;45815;52.334;5.024;2023-02-28T00:15:19;103225.97;;;5.19;100.00
58955;BME280;45815;52.334;5.024;2023-02-28T00:17:45;103233.38;;;5.25;100.00
58955;BME280;45815;52.334;5.024;2023-02-28T00:20:12;103235.16;;;5.26;100.00
58955;BME280;45815;52.334;5.024;2023-02-28T00:22:39;103242.06;;;5.25;100.00
58955;BME280;45815;52.334;5.024;2023-02-28T00:25:06;103233.22;;;5.23;100.00
58955;BME280;45815;52.334;5.024;2023-02-28T00:27:33;103239.47;;;5.25;100.00
58955;BME280;45815;52.334;5.024;2023-02-28T00:29:58;103238.66;;;5.26;100.00
58955;BME280;45815;52.334;5.024;2023-02-28T00:32:24;103240.28;;;5.24;100.00
58955;BME280;45815;52.334;5.024;2023-02-28T00:34:50;103245.94;;;5.31;100.00
58955;BME280;45815;52.334;5.024;2023-02-28T00:37:15;103243.34;;;5.31;100.00
58955;BME280;45815;52.334;5.024;2023-02-28T00:39:41;103247.78;;;5.32;100.00
58955;BME280;45815;52.334;5.024;2023-02-28T00:42:07;103235.53;;;5.31;100.00
58955;BME280;45815;52.334;5.024;2023-02-28T00:44:33;103226.69;;;5.28;100.00
58955;BME280;45815;52.334;5.024;2023-02-28T00:46:59;103223.84;;;5.25;100.00
58955;BME280;45815;52.334;5.024;2023-02-28T00:49:26;103234.31;;;5.37;100.00
58955;BME280;45815;52.334;5.024;2023-02-28T00:51:52;103237.81;;;5.38;100.00
58955;BME280;45815;52.334;5.024;2023-02-28T00:54:18;103241.25;;;5.37;100.00
58955;BME280;45815;52.334;5.024;2023-02-28T00:56:46;103227.41;;;5.38;100.00
58955;BME280;45815;52.334;5.024;2023-02-28T00:59:13;103230.59;;;5.45;100.00
58955;BME280;45815;52.334;5.024;2023-02-28T01:01:38;103223.59;;;5.44;100.00
58955;BME280;45815;52.334;5.024;2023-02-28T01:04:10;103226.34;;;5.46;100.00
58955;BME280;45815;52.334;5.024;2023-02-28T01:06:36;103228.13;;;5.47;100.00
58955;BME280;45815;52.334;5.024;2023-02-28T01:09:04;103226.56;;;5.49;100.00
58955;BME280;45815;52.334;5.024;2023-02-28T01:11:29;103222.03;;;5.46;100.00
58955;BME280;45815;52.334;5.024;2023-02-28T01:13:55;103223.06;;;5.48;100.00
58955;BME280;45815;52.334;5.024;2023-02-28T01:16:20;103229.28;;;5.50;100.00
58955;BME280;45815;52.334;5.024;2023-02-28T01:18:46;103224.09;;;5.50;100.00
58955;BME280;45815;52.334;5.024;2023-02-28T01:21:14;103215.91;;;5.46;100.00
58955;BME280;45815;52.334;5.024;2023-02-28T01:23:40;103219.78;;;5.51;100.00
58955;BME280;45815;52.334;5.024;2023-02-28T01:26:21;103217.59;;;5.45;100.00
58955;BME280;45815;52.334;5.024;2023-02-28T01:28:47;103215.69;;;5.55;100.00
58955;BME280;45815;52.334;5.024;2023-02-28T01:31:13;103214.38;;;5.60;100.00
58955;BME280;45815;52.334;5.024;2023-02-28T01:33:39;103206.56;;;5.60;100.00
58955;BME280;45815;52.334;5.024;2023-02-28T01:36:11;103203.03;;;5.59;100.00
58955;BME280;45815;52.334;5.024;2023-02-28T01:38:37;103216.06;;;5.59;100.00
58955;BME280;45815;52.334;5.024;2023-02-28T01:41:03;103210.31;;;5.63;100.00
58955;BME280;45815;52.334;5.024;2023-02-28T01:43:32;103213.13;;;5.66;100.00
58955;BME280;45815;52.334;5.024;2023-02-28T01:45:58;103206.00;;;5.64;100.00
58955;BME280;45815;52.334;5.024;2023-02-28T01:48:31;103195.78;;;5.55;100.00
58955;BME280;45815;52.334;5.024;2023-02-28T01:51:03;103208.94;;;5.68;100.00
58955;BME280;45815;52.334;5.024;2023-02-28T01:53:35;103213.47;;;5.71;100.00
58955;BME280;45815;52.334;5.024;2023-02-28T01:56:05;103196.16;;;5.60;100.00
58955;BME280;45815;52.334;5.024;2023-02-28T01:58:33;103206.13;;;5.65;100.00
58955;BME280;45815;52.334;5.024;2023-02-28T02:00:59;103202.72;;;5.66;100.00
58955;BME280;45815;52.334;5.024;2023-02-28T02:03:25;103212.34;;;5.67;100.00
58955;BME280;45815;52.334;5.024;2023-02-28T02:05:50;103201.94;;;5.67;100.00
58955;BME280;45815;52.334;5.024;2023-02-28T02:08:22;103203.28;;;5.62;100.00
58955;BME280;45815;52.334;5.024;2023-02-28T02:10:50;103198.06;;;5.62;100.00
58955;BME280;45815;52.334;5.024;2023-02-28T02:13:40;103193.19;;;5.55;100.00
58955;BME280;45815;52.334;5.024;2023-02-28T02:18:52;103186.69;;;5.50;100.00
58955;BME280;45815;52.334;5.024;2023-02-28T02:43:29;103183.50;;;5.42;100.00
58955;BME280;45815;52.334;5.024;2023-02-28T02:46:06;103187.25;;;5.46;100.00
58955;BME280;45815;52.334;5.024;2023-02-28T02:48:37;103180.88;;;5.42;100.00
58955;BME280;45815;52.334;5.024;2023-02-28T02:51:07;103195.44;;;5.50;100.00
58955;BME280;45815;52.334;5.024;2023-02-28T02:53:44;103184.66;;;5.46;100.00
58955;BME280;45815;52.334;5.024;2023-02-28T02:56:15;103185.06;;;5.40;100.00
58955;BME280;45815;52.334;5.024;2023-02-28T02:58:43;103189.72;;;5.44;100.00
58955;BME280;45815;52.334;5.024;2023-02-28T03:01:17;103182.38;;;5.39;100.00
58955;BME280;45815;52.334;5.024;2023-02-28T03:03:55;103178.13;;;5.29;100.00
58955;BME280;45815;52.334;5.024;2023-02-28T03:06:21;103189.16;;;5.37;100.00
58955;BME280;45815;52.334;5.024;2023-02-28T03:08:46;103190.72;;;5.35;100.00
58955;BME280;45815;52.334;5.024;2023-02-28T03:11:13;103188.88;;;5.34;100.00
58955;BME280;45815;52.334;5.024;2023-02-28T03:19:33;103188.19;;;5.24;100.00
58955;BME280;45815;52.334;5.024;2023-02-28T03:22:32;103196.56;;;5.20;100.00
58955;BME280;45815;52.334;5.024;2023-02-28T03:25:16;103190.06;;;5.15;100.00
58955;BME280;45815;52.334;5.024;2023-02-28T03:28:00;103196.28;;;5.17;100.00
58955;BME280;45815;52.334;5.024;2023-02-28T03:33:12;103184.06;;;5.16;100.00
58955;BME280;45815;52.334;5.024;2023-02-28T03:35:43;103175.00;;;5.11;100.00
58955;BME280;45815;52.334;5.024;2023-02-28T03:38:16;103181.53;;;5.06;100.00
58955;BME280;45815;52.334;5.024;2023-02-28T03:40:48;103178.13;;;5.07;100.00
58955;BME280;45815;52.334;5.024;2023-02-28T03:43:19;103171.66;;;5.02;100.00
58955;BME280;45815;52.334;5.024;2023-02-28T03:45:48;103184.91;;;5.05;100.00
58955;BME280;45815;52.334;5.024;2023-02-28T03:48:26;103187.81;;;4.98;100.00
58955;BME280;45815;52.334;5.024;2023-02-28T03:50:55;103196.66;;;5.00;100.00
58955;BME280;45815;52.334;5.024;2023-02-28T03:53:34;103206.56;;;4.94;100.00
58955;BME280;45815;52.334;5.024;2023-02-28T03:56:13;103206.19;;;4.89;100.00
58955;BME280;45815;52.334;5.024;2023-02-28T03:58:51;103198.28;;;4.88;100.00
58955;BME280;45815;52.334;5.024;2023-02-28T04:03:56;103199.56;;;4.93;100.00
58955;BME280;45815;52.334;5.024;2023-02-28T04:06:23;103199.56;;;4.93;100.00
58955;BME280;45815;52.334;5.024;2023-02-28T04:08:49;103193.47;;;4.92;100.00
58955;BME280;45815;52.334;5.024;2023-02-28T04:11:22;103191.53;;;4.90;100.00
58955;BME280;45815;52.334;5.024;2023-02-28T04:13:48;103180.84;;;4.86;100.00
58955;BME280;45815;52.334;5.024;2023-02-28T04:16:14;103188.66;;;4.86;100.00
58955;BME280;45815;52.334;5.024;2023-02-28T04:18:39;103199.56;;;4.93;100.00
58955;BME280;45815;52.334;5.024;2023-02-28T04:21:06;103189.16;;;4.93;100.00
58955;BME280;45815;52.334;5.024;2023-02-28T04:23:32;103192.56;;;4.92;100.00
58955;BME280;45815;52.334;5.024;2023-02-28T04:25:58;103189.16;;;4.93;100.00
58955;BME280;45815;52.334;5.024;2023-02-28T04:28:24;103171.00;;;4.82;100.00
58955;BME280;45815;52.334;5.024;2023-02-28T04:31:04;103185.94;;;4.85;100.00
58955;BME280;45815;52.334;5.024;2023-02-28T04:33:31;103188.00;;;4.89;100.00
58955;BME280;45815;52.334;5.024;2023-02-28T04:36:06;103186.84;;;4.85;100.00
58955;BME280;45815;52.334;5.024;2023-02-28T04:38:34;103188.66;;;4.86;100.00
58955;BME280;45815;52.334;5.024;2023-02-28T04:41:00;103185.00;;;4.84;100.00
58955;BME280;45815;52.334;5.024;2023-02-28T04:43:27;103187.63;;;4.84;100.00
58955;BME280;45815;52.334;5.024;2023-02-28T04:45:53;103181.41;;;4.82;100.00
58955;BME280;45815;52.334;5.024;2023-02-28T04:48:22;103186.25;;;4.78;100.00
58955;BME280;45815;52.334;5.024;2023-02-28T04:50:48;103189.09;;;4.81;100.00
58955;BME280;45815;52.334;5.024;2023-02-28T04:53:14;103184.66;;;4.80;100.00
58955;BME280;45815;52.334;5.024;2023-02-28T04:55:39;103184.53;;;4.78;100.00
58955;BME280;45815;52.334;5.024;2023-02-28T04:58:05;103185.44;;;4.79;100.00
58955;BME280;45815;52.334;5.024;2023-02-28T05:00:31;103185.44;;;4.79;100.00
58955;BME280;45815;52.334;5.024;2023-02-28T05:02:56;103188.84;;;4.78;100.00
58955;BME280;45815;52.334;5.024;2023-02-28T05:05:22;103186.34;;;4.79;100.00
58955;BME280;45815;52.334;5.024;2023-02-28T05:07:47;103181.41;;;4.82;100.00
58955;BME280;45815;52.334;5.024;2023-02-28T05:10:12;103178.91;;;4.84;100.00
58955;BME280;45815;52.334;5.024;2023-02-28T05:12:38;103181.50;;;4.84;100.00
58955;BME280;45815;52.334;5.024;2023-02-28T05:15:04;103183.22;;;4.83;100.00
58955;BME280;45815;52.334;5.024;2023-02-28T05:17:30;103187.38;;;4.81;100.00
58955;BME280;45815;52.334;5.024;2023-02-28T05:19:56;103187.50;;;4.83;100.00
58955;BME280;45815;52.334;5.024;2023-02-28T05:22:21;103189.97;;;4.81;100.00
58955;BME280;45815;52.334;5.024;2023-02-28T05:24:47;103195.72;;;4.77;100.00
58955;BME280;45815;52.334;5.024;2023-02-28T05:27:12;103193.69;;;4.73;100.00
58955;BME280;45815;52.334;5.024;2023-02-28T05:29:38;103194.72;;;4.75;100.00
58955;BME280;45815;52.334;5.024;2023-02-28T05:32:10;103204.31;;;4.76;100.00
58955;BME280;45815;52.334;5.024;2023-02-28T05:34:37;103190.81;;;4.70;100.00
58955;BME280;45815;52.334;5.024;2023-02-28T05:37:03;103209.38;;;4.75;100.00
58955;BME280;45815;52.334;5.024;2023-02-28T05:39:29;103205.13;;;4.75;100.00
58955;BME280;45815;52.334;5.024;2023-02-28T05:41:54;103199.66;;;4.72;100.00
58955;BME280;45815;52.334;5.024;2023-02-28T05:44:23;103177.63;;;4.57;100.00
58955;BME280;45815;52.334;5.024;2023-02-28T05:46:48;103198.66;;;4.60;100.00
58955;BME280;45815;52.334;5.024;2023-02-28T05:49:13;103198.44;;;4.57;100.00
58955;BME280;45815;52.334;5.024;2023-02-28T05:51:39;103200.00;;;4.55;100.00
58955;BME280;45815;52.334;5.024;2023-02-28T05:54:05;103203.25;;;4.52;100.00
58955;BME280;45815;52.334;5.024;2023-02-28T05:56:31;103209.75;;;4.47;100.00
58955;BME280;45815;52.334;5.024;2023-02-28T05:58:59;103205.19;;;4.44;100.00
58955;BME280;45815;52.334;5.024;2023-02-28T06:01:45;103207.88;;;4.24;100.00
58955;BME280;45815;52.334;5.024;2023-02-28T06:04:14;103206.31;;;4.26;100.00
58955;BME280;45815;52.334;5.024;2023-02-28T06:06:49;103210.47;;;4.24;100.00
58955;BME280;45815;52.334;5.024;2023-02-28T06:09:16;103210.59;;;4.26;100.00
58955;BME280;45815;52.334;5.024;2023-02-28T06:11:42;103213.84;;;4.23;100.00
58955;BME280;45815;52.334;5.024;2023-02-28T06:14:12;103188.41;;;4.09;100.00
58955;BME280;45815;52.334;5.024;2023-02-28T06:16:39;103215.16;;;4.18;100.00
58955;BME280;45815;52.334;5.024;2023-02-28T06:19:05;103223.84;;;4.18;100.00
58955;BME280;45815;52.334;5.024;2023-02-28T06:21:30;103221.41;;;4.20;100.00
58955;BME280;45815;52.334;5.024;2023-02-28T06:23:57;103224.13;;;4.21;100.00
58955;BME280;45815;52.334;5.024;2023-02-28T06:26:23;103223.47;;;4.14;100.00
58955;BME280;45815;52.334;5.024;2023-02-28T06:28:49;103233.88;;;4.04;100.00
58955;BME280;45815;52.334;5.024;2023-02-28T06:31:16;103229.47;;;3.92;100.00
58955;BME280;45815;52.334;5.024;2023-02-28T06:33:42;103239.22;;;3.85;100.00
58955;BME280;45815;52.334;5.024;2023-02-28T06:36:09;103230.91;;;3.68;100.00
58955;BME280;45815;52.334;5.024;2023-02-28T06:38:35;103233.50;;;3.68;100.00
58955;BME280;45815;52.334;5.024;2023-02-28T06:41:02;103233.38;;;3.67;100.00
58955;BME280;45815;52.334;5.024;2023-02-28T06:43:29;103240.91;;;3.64;100.00
58955;BME280;45815;52.334;5.024;2023-02-28T06:45:56;103236.72;;;3.55;100.00
58955;BME280;45815;52.334;5.024;2023-02-28T06:48:23;103245.06;;;3.51;100.00
58955;BME280;45815;52.334;5.024;2023-02-28T06:50:49;103241.13;;;3.46;100.00
58955;BME280;45815;52.334;5.024;2023-02-28T06:53:14;103237.31;;;3.32;100.00
58955;BME280;45815;52.334;5.024;2023-02-28T06:55:40;103257.25;;;3.52;100.00
58955;BME280;45815;52.334;5.024;2023-02-28T06:58:06;103247.09;;;3.55;100.00
58955;BME280;45815;52.334;5.024;2023-02-28T07:00:43;103262.53;;;3.44;100.00
58955;BME280;45815;52.334;5.024;2023-02-28T07:03:10;103250.09;;;3.40;100.00
58955;BME280;45815;52.334;5.024;2023-02-28T07:05:36;103249.94;;;3.38;100.00
58955;BME280;45815;52.334;5.024;2023-02-28T07:08:03;103265.63;;;3.29;100.00
58955;BME280;45815;52.334;5.024;2023-02-28T07:10:29;103267.06;;;3.26;100.00
58955;BME280;45815;52.334;5.024;2023-02-28T07:12:54;103264.69;;;3.19;100.00
58955;BME280;45815;52.334;5.024;2023-02-28T07:15:20;103269.47;;;3.14;100.00
58955;BME280;45815;52.334;5.024;2023-02-28T07:17:45;103271.44;;;3.16;100.00
58955;BME280;45815;52.334;5.024;2023-02-28T07:20:11;103277.13;;;3.12;100.00
58955;BME280;45815;52.334;5.024;2023-02-28T07:22:37;103281.53;;;3.13;100.00
58955;BME280;45815;52.334;5.024;2023-02-28T07:25:04;103281.75;;;3.06;100.00
58955;BME280;45815;52.334;5.024;2023-02-28T07:27:30;103270.72;;;2.99;100.00
58955;BME280;45815;52.334;5.024;2023-02-28T07:29:55;103279.28;;;2.98;100.00
58955;BME280;45815;52.334;5.024;2023-02-28T07:32:21;103283.75;;;2.90;100.00
58955;BME280;45815;52.334;5.024;2023-02-28T07:34:46;103298.84;;;2.94;100.00
58955;BME280;45815;52.334;5.024;2023-02-28T07:37:12;103288.38;;;3.03;100.00
58955;BME280;45815;52.334;5.024;2023-02-28T07:39:40;103284.66;;;3.09;100.00
58955;BME280;45815;52.334;5.024;2023-02-28T07:42:09;103291.09;;;3.04;100.00
58955;BME280;45815;52.334;5.024;2023-02-28T07:44:41;103279.28;;;2.98;100.00
58955;BME280;45815;52.334;5.024;2023-02-28T07:47:08;103281.72;;;2.96;100.00
58955;BME280;45815;52.334;5.024;2023-02-28T07:49:37;103284.16;;;2.94;100.00
58955;BME280;45815;52.334;5.024;2023-02-28T07:52:06;103286.66;;;2.93;100.00
58955;BME280;45815;52.334;5.024;2023-02-28T07:54:32;103283.00;;;2.91;100.00
58955;BME280;45815;52.334;5.024;2023-02-28T07:56:58;103265.72;;;2.81;100.00
58955;BME280;45815;52.334;5.024;2023-02-28T07:59:23;103274.41;;;2.82;100.00
58955;BME280;45815;52.334;5.024;2023-02-28T08:01:49;103263.63;;;2.77;100.00
58955;BME280;45815;52.334;5.024;2023-02-28T08:04:18;103281.53;;;2.84;100.00
58955;BME280;45815;52.334;5.024;2023-02-28T08:06:43;103289.47;;;2.86;100.00
58955;BME280;45815;52.334;5.024;2023-02-28T08:09:09;103288.53;;;2.85;100.00
58955;BME280;45815;52.334;5.024;2023-02-28T08:11:34;103274.81;;;2.86;100.00
58955;BME280;45815;52.334;5.024;2023-02-28T08:14:00;103270.78;;;2.90;100.00
58955;BME280;45815;52.334;5.024;2023-02-28T08:16:25;103281.56;;;2.94;100.00
58955;BME280;45815;52.334;5.024;2023-02-28T08:18:52;103277.09;;;3.02;100.00
58955;BME280;45815;52.334;5.024;2023-02-28T08:21:18;103275.25;;;3.01;100.00
58955;BME280;45815;52.334;5.024;2023-02-28T08:23:43;103274.91;;;3.07;100.00
58955;BME280;45815;52.334;5.024;2023-02-28T08:26:12;103268.94;;;3.18;100.00
58955;BME280;45815;52.334;5.024;2023-02-28T08:28:38;103277.69;;;3.19;100.00
58955;BME280;45815;52.334;5.024;2023-02-28T08:31:09;103266.88;;;3.14;100.00
58955;BME280;45815;52.334;5.024;2023-02-28T08:33:35;103265.94;;;3.13;100.00
58955;BME280;45815;52.334;5.024;2023-02-28T08:36:01;103259.50;;;3.19;100.00
58955;BME280;45815;52.334;5.024;2023-02-28T08:38:27;103265.50;;;3.28;100.00
58955;BME280;45815;52.334;5.024;2023-02-28T08:41:00;103266.53;;;3.30;100.00
58955;BME280;45815;52.334;5.024;2023-02-28T08:43:26;103270.06;;;3.30;100.00
58955;BME280;45815;52.334;5.024;2023-02-28T08:45:55;103277.06;;;3.31;100.00
58955;BME280;45815;52.334;5.024;2023-02-28T08:48:24;103260.75;;;3.13;100.00
58955;BME280;45815;52.334;5.024;2023-02-28T08:51:09;103271.28;;;3.15;100.00
58955;BME280;45815;52.334;5.024;2023-02-28T08:53:36;103273.81;;;3.34;100.00
58955;BME280;45815;52.334;5.024;2023-02-28T08:56:13;103272.66;;;3.41;100.00
58955;BME280;45815;52.334;5.024;2023-02-28T08:58:40;103270.47;;;3.45;100.00
58955;BME280;45815;52.334;5.024;2023-02-28T09:01:09;103272.66;;;3.41;100.00
58955;BME280;45815;52.334;5.024;2023-02-28T09:03:35;103267.88;;;3.45;100.00
58955;BME280;45815;52.334;5.024;2023-02-28T09:06:00;103268.53;;;3.53;100.00
58955;BME280;45815;52.334;5.024;2023-02-28T09:08:27;103272.81;;;3.52;100.00
58955;BME280;45815;52.334;5.024;2023-02-28T09:10:54;103278.81;;;3.62;100.00
58955;BME280;45815;52.334;5.024;2023-02-28T09:13:21;103279.59;;;3.71;100.00
58955;BME280;45815;52.334;5.024;2023-02-28T09:15:47;103278.31;;;3.76;100.00
58955;BME280;45815;52.334;5.024;2023-02-28T09:18:13;103282.34;;;3.83;100.00
58955;BME280;45815;52.334;5.024;2023-02-28T09:20:39;103279.34;;;3.88;100.00
58955;BME280;45815;52.334;5.024;2023-02-28T09:23:06;103284.28;;;3.95;100.00
58955;BME280;45815;52.334;5.024;2023-02-28T09:25:32;103292.38;;;3.98;100.00
58955;BME280;45815;52.334;5.024;2023-02-28T09:27:58;103284.03;;;4.02;100.00
58955;BME280;45815;52.334;5.024;2023-02-28T09:30:23;103284.31;;;4.06;100.00
58955;BME280;45815;52.334;5.024;2023-02-28T09:32:57;103284.81;;;4.12;100.00
58955;BME280;45815;52.334;5.024;2023-02-28T09:35:24;103276.50;;;4.16;100.00
58955;BME280;45815;52.334;5.024;2023-02-28T09:37:51;103285.88;;;4.24;100.00
58955;BME280;45815;52.334;5.024;2023-02-28T09:40:18;103292.34;;;4.29;100.00
58955;BME280;45815;52.334;5.024;2023-02-28T09:42:46;103296.25;;;4.34;100.00
58955;BME280;45815;52.334;5.024;2023-02-28T09:45:43;103294.41;;;4.43;100.00
58955;BME280;45815;52.334;5.024;2023-02-28T09:48:14;103286.75;;;4.45;100.00
58955;BME280;45815;52.334;5.024;2023-02-28T09:50:48;103289.97;;;4.53;100.00
58955;BME280;45815;52.334;5.024;2023-02-28T09:53:33;103291.53;;;4.51;100.00
58955;BME280;45815;52.334;5.024;2023-02-28T09:56:07;103296.31;;;4.56;100.00
58955;BME280;45815;52.334;5.024;2023-02-28T09:58:42;103291.13;;;4.56;100.00
58955;BME280;45815;52.334;5.024;2023-02-28T10:04:00;103286.53;;;4.74;100.00
58955;BME280;45815;52.334;5.024;2023-02-28T10:06:37;103287.28;;;4.83;100.00
58955;BME280;45815;52.334;5.024;2023-02-28T10:09:19;103277.97;;;4.75;100.00
58955;BME280;45815;52.334;5.024;2023-02-28T10:11:48;103289.09;;;4.84;100.00
58955;BME280;45815;52.334;5.024;2023-02-28T10:14:18;103287.28;;;4.83;100.00
58955;BME280;45815;52.334;5.024;2023-02-28T10:19:43;103282.47;;;4.88;100.00
58955;BME280;45815;52.334;5.024;2023-02-28T10:22:34;103273.25;;;4.81;100.00
58955;BME280;45815;52.334;5.024;2023-02-28T10:25:15;103286.19;;;5.02;100.00
58955;BME280;45815;52.334;5.024;2023-02-28T10:27:41;103284.81;;;5.17;100.00
58955;BME280;45815;52.334;5.024;2023-02-28T10:30:13;103289.19;;;5.28;100.00
58955;BME280;45815;52.334;5.024;2023-02-28T10:32:49;103292.28;;;5.35;100.00
58955;BME280;45815;52.334;5.024;2023-02-28T10:35:23;103299.00;;;5.43;100.00
58955;BME280;45815;52.334;5.024;2023-02-28T10:37:57;103296.53;;;5.44;100.00
58955;BME280;45815;52.334;5.024;2023-02-28T10:43:01;103285.84;;;5.63;100.00
58955;BME280;45815;52.334;5.024;2023-02-28T10:45:28;103288.75;;;5.78;100.00
58955;BME280;45815;52.334;5.024;2023-02-28T10:51:14;103255.94;;;5.92;100.00
58955;BME280;45815;52.334;5.024;2023-02-28T11:01:22;103246.88;;;6.21;100.00
58955;BME280;45815;52.334;5.024;2023-02-28T11:03:49;103238.59;;;6.50;100.00
58955;BME280;45815;52.334;5.024;2023-02-28T11:06:29;103260.91;;;7.05;100.00
58955;BME280;45815;52.334;5.024;2023-02-28T11:09:14;103258.72;;;7.11;100.00
58955;BME280;45815;52.334;5.024;2023-02-28T11:11:45;103255.44;;;7.14;100.00
58955;BME280;45815;52.334;5.024;2023-02-28T11:14:20;103247.63;;;6.90;100.00
58955;BME280;45815;52.334;5.024;2023-02-28T11:16:47;103254.13;;;6.95;100.00
58955;BME280;45815;52.334;5.024;2023-02-28T11:19:26;103251.94;;;7.02;100.00
58955;BME280;45815;52.334;5.024;2023-02-28T11:22:04;103249.25;;;7.00;100.00
58955;BME280;45815;52.334;5.024;2023-02-28T11:24:33;103236.50;;;7.05;100.00
58955;BME280;45815;52.334;5.024;2023-02-28T11:27:01;103228.53;;;7.15;100.00
58955;BME280;45815;52.334;5.024;2023-02-28T11:29:32;103247.88;;;7.30;100.00
58955;BME280;45815;52.334;5.024;2023-02-28T11:32:19;103230.56;;;7.19;100.00
58955;BME280;45815;52.334;5.024;2023-02-28T11:34:47;103225.47;;;7.46;100.00
58955;BME280;45815;52.334;5.024;2023-02-28T11:37:27;103215.06;;;7.34;100.00
58955;BME280;45815;52.334;5.024;2023-02-28T11:39:53;103228.31;;;7.37;100.00
58955;BME280;45815;52.334;5.024;2023-02-28T11:42:25;103226.75;;;7.64;100.00
58955;BME280;45815;52.334;5.024;2023-02-28T11:45:04;103221.25;;;7.73;100.00
58955;BME280;45815;52.334;5.024;2023-02-28T11:50:31;103211.84;;;7.88;100.00
58955;BME280;45815;52.334;5.024;2023-02-28T11:53:12;103214.25;;;7.85;100.00
58955;BME280;45815;52.334;5.024;2023-02-28T11:55:48;103216.72;;;8.09;100.00
58955;BME280;45815;52.334;5.024;2023-02-28T12:03:47;103213.56;;;9.07;100.00
58955;BME280;45815;52.334;5.024;2023-02-28T12:11:54;103195.69;;;10.46;100.00
58955;BME280;45815;52.334;5.024;2023-02-28T12:14:47;103197.59;;;11.27;94.45
58955;BME280;45815;52.334;5.024;2023-02-28T12:17:46;103187.03;;;11.93;87.65
58955;BME280;45815;52.334;5.024;2023-02-28T12:20:37;103190.09;;;12.18;87.97
58955;BME280;45815;52.334;5.024;2023-02-28T12:28:47;103178.59;;;12.89;84.03
58955;BME280;45815;52.334;5.024;2023-02-28T12:31:24;103177.78;;;13.10;80.56
58955;BME280;45815;52.334;5.024;2023-02-28T12:33:59;103176.59;;;13.60;76.69
58955;BME280;45815;52.334;5.024;2023-02-28T12:36:27;103178.91;;;13.73;77.98
58955;BME280;45815;52.334;5.024;2023-02-28T12:38:58;103165.91;;;13.78;73.28
58955;BME280;45815;52.334;5.024;2023-02-28T12:41:41;103174.69;;;13.98;73.59
58955;BME280;45815;52.334;5.024;2023-02-28T12:44:12;103172.81;;;14.17;71.10
58955;BME280;45815;52.334;5.024;2023-02-28T12:46:45;103169.66;;;14.25;70.99
58955;BME280;45815;52.334;5.024;2023-02-28T12:49:19;103162.34;;;14.41;72.66
58955;BME280;45815;52.334;5.024;2023-02-28T12:51:47;103166.16;;;14.47;72.57
58955;BME280;45815;52.334;5.024;2023-02-28T12:56:59;103145.19;;;14.52;69.39
58955;BME280;45815;52.334;5.024;2023-02-28T13:10:46;103153.28;;;15.24;60.65
58955;BME280;45815;52.334;5.024;2023-02-28T13:13:17;103151.44;;;15.47;66.49
58955;BME280;45815;52.334;5.024;2023-02-28T13:18:43;103139.09;;;15.22;62.66
58955;BME280;45815;52.334;5.024;2023-02-28T13:21:23;103144.03;;;15.13;59.06
58955;BME280;45815;52.334;5.024;2023-02-28T13:34:41;103146.53;;;14.86;63.64
58955;BME280;45815;52.334;5.024;2023-02-28T13:39:48;103139.91;;;14.74;68.26
58955;BME280;45815;52.334;5.024;2023-02-28T13:42:35;103144.38;;;14.32;66.69
58955;BME280;45815;52.334;5.024;2023-02-28T13:52:57;103138.28;;;12.73;81.44
58955;BME280;45815;52.334;5.024;2023-02-28T14:04:06;103131.03;;;11.28;87.83
58955;BME280;45815;52.334;5.024;2023-02-28T14:06:37;103128.50;;;11.30;91.39
58955;BME280;45815;52.334;5.024;2023-02-28T14:09:41;103129.50;;;11.15;90.71
58955;BME280;45815;52.334;5.024;2023-02-28T14:18:00;103131.63;;;11.39;90.55
58955;BME280;45815;52.334;5.024;2023-02-28T14:20:30;103115.59;;;11.34;90.84
58955;BME280;45815;52.334;5.024;2023-02-28T14:23:05;103101.28;;;11.46;93.08
58955;BME280;45815;52.334;5.024;2023-02-28T14:25:40;103121.25;;;11.42;90.85
58955;BME280;45815;52.334;5.024;2023-02-28T14:28:19;103119.97;;;11.34;92.84
58955;BME280;45815;52.334;5.024;2023-02-28T14:31:01;103113.63;;;10.97;90.57
58955;BME280;45815;52.334;5.024;2023-02-28T14:38:47;103125.41;;;9.96;96.76
58955;BME280;45815;52.334;5.024;2023-02-28T14:41:39;103114.31;;;9.70;99.18
58955;BME280;45815;52.334;5.024;2023-02-28T14:46:43;103117.72;;;9.69;100.00
58955;BME280;45815;52.334;5.024;2023-02-28T14:52:22;103107.03;;;9.81;100.00
58955;BME280;45815;52.334;5.024;2023-02-28T14:54:53;103111.75;;;10.16;100.00
58955;BME280;45815;52.334;5.024;2023-02-28T14:57:28;103115.88;;;10.42;98.56
58955;BME280;45815;52.334;5.024;2023-02-28T15:00:03;103110.41;;;10.54;97.91
58955;BME280;45815;52.334;5.024;2023-02-28T15:02:34;103108.56;;;10.53;97.81
58955;BME280;45815;52.334;5.024;2023-02-28T15:07:42;103110.75;;;10.93;95.47
58955;BME280;45815;52.334;5.024;2023-02-28T15:12:56;103106.00;;;11.18;94.33
58955;BME280;45815;52.334;5.024;2023-02-28T15:15:26;103112.22;;;11.37;93.84
58955;BME280;45815;52.334;5.024;2023-02-28T15:17:54;103114.00;;;11.54;93.20
58955;BME280;45815;52.334;5.024;2023-02-28T15:20:21;103107.03;;;11.73;92.87
58955;BME280;45815;52.334;5.024;2023-02-28T15:22:50;103110.19;;;12.00;92.21
58955;BME280;45815;52.334;5.024;2023-02-28T15:25:20;103107.25;;;11.77;91.23
58955;BME280;45815;52.334;5.024;2023-02-28T15:27:50;103103.13;;;11.65;91.89